createdAt,value
2018-08-23T00:00:47.436Z,22.00
2018-08-23T00:03:20.425Z,21.90
2018-08-23T00:05:53.288Z,21.90
2018-08-23T00:08:21.443Z,21.90
2018-08-23T00:10:49.633Z,21.90
2018-08-23T00:13:17.283Z,21.90
2018-08-23T00:15:44.878Z,21.90
2018-08-23T00:18:12.513Z,21.80
2018-08-23T00:20:40.143Z,21.80
2018-08-23T00:23:08.231Z,21.80
2018-08-23T00:25:36.620Z,21.80
2018-08-23T00:28:04.627Z,21.80
2018-08-23T00:30:32.982Z,21.70
2018-08-23T00:33:01.870Z,21.70
2018-08-23T00:35:31.384Z,21.60
2018-08-23T00:37:58.931Z,21.60
2018-08-23T00:40:26.513Z,21.60
2018-08-23T00:42:59.529Z,21.50
2018-08-23T00:45:27.084Z,21.50
2018-08-23T00:47:54.640Z,21.50
2018-08-23T00:50:26.265Z,21.50
2018-08-23T00:52:53.837Z,21.40
2018-08-23T00:55:27.783Z,21.30
2018-08-23T00:57:55.347Z,21.40
2018-08-23T01:00:24.203Z,21.40
2018-08-23T01:02:53.256Z,21.30
2018-08-23T01:05:26.490Z,21.20
2018-08-23T01:07:54.068Z,21.20
2018-08-23T01:10:21.684Z,21.10
2018-08-23T01:12:52.192Z,21.10
2018-08-23T01:15:20.046Z,21.00
2018-08-23T01:17:47.985Z,21.00
2018-08-23T01:20:15.515Z,21.00
2018-08-23T01:22:48.635Z,20.90
2018-08-23T01:25:16.239Z,21.00
2018-08-23T01:27:43.783Z,20.90
2018-08-23T01:30:12.336Z,20.90
2018-08-23T01:32:39.926Z,20.90
2018-08-23T01:35:09.382Z,20.80
2018-08-23T01:37:38.566Z,20.80
2018-08-23T01:40:07.027Z,20.70
2018-08-23T01:42:36.431Z,20.70
2018-08-23T01:45:05.223Z,20.70
2018-08-23T01:47:34.184Z,20.70
2018-08-23T01:50:01.740Z,20.60
2018-08-23T01:52:29.340Z,20.60
2018-08-23T01:54:56.893Z,20.60
2018-08-23T01:57:27.988Z,20.50
2018-08-23T01:59:55.550Z,20.50
2018-08-23T02:02:23.152Z,20.50
2018-08-23T02:04:50.688Z,20.40
2018-08-23T02:07:18.312Z,20.40
2018-08-23T02:09:45.896Z,20.40
2018-08-23T02:12:13.613Z,20.40
2018-08-23T02:14:45.335Z,20.30
2018-08-23T02:17:13.192Z,20.30
2018-08-23T02:19:41.748Z,20.30
2018-08-23T02:22:09.312Z,20.20
2018-08-23T02:24:36.868Z,20.20
2018-08-23T02:27:04.501Z,20.20
2018-08-23T02:29:37.641Z,20.10
2018-08-23T02:32:05.433Z,20.10
2018-08-23T02:34:38.420Z,20.10
2018-08-23T02:37:05.972Z,20.10
2018-08-23T02:39:33.522Z,20.00
2018-08-23T02:42:01.101Z,19.90
2018-08-23T02:44:28.750Z,19.90
2018-08-23T02:46:56.336Z,19.90
2018-08-23T02:49:23.983Z,19.90
2018-08-23T02:51:52.179Z,19.90
2018-08-23T02:54:19.920Z,19.90
2018-08-23T02:56:53.009Z,19.90
2018-08-23T02:59:20.734Z,19.90
2018-08-23T03:01:49.287Z,19.80
2018-08-23T03:04:22.902Z,19.80
2018-08-23T03:06:50.861Z,19.80
2018-08-23T03:09:20.752Z,19.80
2018-08-23T03:11:49.245Z,19.70
2018-08-23T03:17:15.447Z,19.60
2018-08-23T03:19:48.734Z,19.60
2018-08-23T03:22:16.316Z,19.60
2018-08-23T03:24:43.867Z,19.50
2018-08-23T03:27:11.487Z,19.40
2018-08-23T03:29:40.095Z,19.40
2018-08-23T03:32:07.656Z,19.40
2018-08-23T03:34:35.239Z,19.40
2018-08-23T03:37:02.812Z,19.30
2018-08-23T03:39:30.962Z,19.10
2018-08-23T03:41:58.547Z,19.10
2018-08-23T03:44:31.475Z,19.30
2018-08-23T03:46:59.120Z,19.30
2018-08-23T03:49:31.479Z,19.30
2018-08-23T03:51:59.294Z,19.30
2018-08-23T03:54:26.888Z,19.30
2018-08-23T03:57:05.585Z,19.30
2018-08-23T03:59:33.145Z,19.20
2018-08-23T04:02:00.667Z,19.20
2018-08-23T04:04:28.566Z,19.20
2018-08-23T04:06:56.078Z,19.10
2018-08-23T04:09:23.616Z,19.10
2018-08-23T04:11:51.136Z,19.00
2018-08-23T04:14:18.678Z,19.00
2018-08-23T04:16:46.272Z,19.00
2018-08-23T04:19:13.897Z,18.90
2018-08-23T04:21:41.433Z,19.00
2018-08-23T04:24:09.004Z,19.00
2018-08-23T04:26:36.620Z,19.00
2018-08-23T04:29:04.310Z,19.10
2018-08-23T04:31:31.855Z,19.10
2018-08-23T04:33:59.459Z,19.00
2018-08-23T04:36:27.109Z,19.00
2018-08-23T04:38:59.627Z,19.00
2018-08-23T04:41:27.575Z,19.00
2018-08-23T04:43:57.523Z,19.10
2018-08-23T04:46:25.089Z,19.10
2018-08-23T04:48:52.637Z,19.10
2018-08-23T04:51:24.065Z,19.10
2018-08-23T04:53:51.659Z,19.10
2018-08-23T04:56:19.216Z,19.10
2018-08-23T04:58:46.754Z,19.00
2018-08-23T05:01:14.309Z,19.10
2018-08-23T05:03:41.879Z,19.10
2018-08-23T05:06:09.403Z,19.00
2018-08-23T05:08:36.953Z,19.10
2018-08-23T05:11:04.511Z,19.10
2018-08-23T05:13:32.062Z,19.10
2018-08-23T05:15:59.610Z,19.20
2018-08-23T05:18:27.136Z,19.20
2018-08-23T05:20:54.685Z,19.20
2018-08-23T05:23:22.232Z,19.20
2018-08-23T05:25:50.773Z,19.20
2018-08-23T05:28:19.452Z,19.20
2018-08-23T05:30:47.692Z,19.20
2018-08-23T05:33:16.387Z,19.20
2018-08-23T05:35:43.932Z,19.20
2018-08-23T05:38:12.118Z,19.20
2018-08-23T05:40:51.444Z,19.30
2018-08-23T05:43:18.975Z,19.20
2018-08-23T05:45:52.183Z,19.20
2018-08-23T05:48:32.018Z,19.20
2018-08-23T05:51:00.050Z,19.30
2018-08-23T05:53:27.600Z,19.40
2018-08-23T05:55:56.469Z,19.50
2018-08-23T05:58:26.506Z,19.50
2018-08-23T06:00:54.234Z,19.50
2018-08-23T06:03:22.901Z,19.70
2018-08-23T06:05:50.918Z,19.80
2018-08-23T06:08:18.586Z,19.90
2018-08-23T06:10:46.111Z,20.00
2018-08-23T06:13:13.741Z,20.00
2018-08-23T06:15:46.731Z,20.10
2018-08-23T06:18:16.392Z,20.10
2018-08-23T06:20:43.959Z,20.30
2018-08-23T06:23:11.540Z,20.40
2018-08-23T06:25:39.385Z,20.40
2018-08-23T06:28:12.622Z,20.20
2018-08-23T06:30:40.179Z,20.10
2018-08-23T06:33:07.797Z,20.20
2018-08-23T06:35:38.725Z,20.40
2018-08-23T06:38:07.448Z,20.40
2018-08-23T06:40:35.002Z,20.50
2018-08-23T06:43:03.146Z,20.60
2018-08-23T06:45:30.914Z,20.90
2018-08-23T06:48:00.224Z,21.40
2018-08-23T06:50:27.882Z,21.80
2018-08-23T06:52:55.487Z,22.10
2018-08-23T06:55:27.304Z,22.20
2018-08-23T06:58:00.342Z,22.10
2018-08-23T07:00:28.193Z,22.00
2018-08-23T07:02:55.965Z,21.90
2018-08-23T07:05:23.803Z,22.10
2018-08-23T07:07:51.648Z,22.10
2018-08-23T07:10:19.228Z,22.30
2018-08-23T07:12:46.808Z,22.50
2018-08-23T07:15:14.362Z,22.80
2018-08-23T07:17:41.973Z,23.10
2018-08-23T07:20:12.125Z,23.30
2018-08-23T07:22:39.669Z,23.40
2018-08-23T07:25:10.060Z,23.70
2018-08-23T07:27:37.624Z,23.90
2018-08-23T07:30:05.796Z,24.20
2018-08-23T07:32:33.218Z,24.40
2018-08-23T07:35:04.767Z,24.70
2018-08-23T07:37:33.606Z,24.90
2018-08-23T07:40:06.708Z,24.90
2018-08-23T07:42:35.338Z,25.00
2018-08-23T07:45:03.274Z,25.30
2018-08-23T07:47:31.446Z,25.60
2018-08-23T07:50:00.233Z,25.70
2018-08-23T07:52:29.054Z,25.90
2018-08-23T07:54:56.801Z,25.80
2018-08-23T07:57:24.397Z,25.90
2018-08-23T07:59:57.312Z,26.10
2018-08-23T08:02:25.228Z,26.10
2018-08-23T08:04:52.755Z,26.20
2018-08-23T08:07:24.689Z,26.50
2018-08-23T08:09:52.243Z,26.60
2018-08-23T08:12:25.396Z,26.70
2018-08-23T08:14:53.004Z,26.80
2018-08-23T08:17:38.286Z,26.90
2018-08-23T08:20:06.541Z,27.10
2018-08-23T08:22:34.087Z,27.20
2018-08-23T08:25:08.500Z,27.50
2018-08-23T08:27:36.329Z,27.60
2018-08-23T08:30:04.144Z,27.70
2018-08-23T08:32:31.733Z,27.80
2018-08-23T08:34:59.527Z,27.90
2018-08-23T08:37:27.789Z,28.20
2018-08-23T08:39:55.491Z,28.50
2018-08-23T08:42:26.630Z,28.60
2018-08-23T08:44:57.991Z,28.60
2018-08-23T08:47:25.509Z,28.70
2018-08-23T08:49:53.066Z,28.70
2018-08-23T08:52:20.723Z,28.60
2018-08-23T08:54:48.272Z,28.60
2018-08-23T08:57:15.894Z,28.40
2018-08-23T08:59:43.381Z,28.20
2018-08-23T09:02:10.912Z,28.20
2018-08-23T09:04:38.464Z,28.20
2018-08-23T09:07:05.991Z,28.10
2018-08-23T09:09:38.863Z,28.00
2018-08-23T09:12:08.584Z,27.80
2018-08-23T09:14:37.220Z,27.80
2018-08-23T09:17:14.630Z,27.90
2018-08-23T09:19:47.887Z,27.80
2018-08-23T09:22:19.377Z,27.80
2018-08-23T09:24:46.936Z,28.10
2018-08-23T09:27:15.333Z,28.10
2018-08-23T09:29:42.836Z,28.10
2018-08-23T09:32:17.380Z,28.10
2018-08-23T09:34:44.925Z,28.00
2018-08-23T09:37:12.493Z,28.00
2018-08-23T09:39:40.471Z,27.90
2018-08-23T09:42:08.272Z,27.90
2018-08-23T09:44:40.324Z,27.90
2018-08-23T09:47:07.852Z,27.90
2018-08-23T09:49:35.403Z,28.00
2018-08-23T09:52:07.432Z,27.90
2018-08-23T09:54:34.975Z,27.90
2018-08-23T09:57:02.572Z,27.90
2018-08-23T09:59:33.610Z,28.00
2018-08-23T10:02:06.573Z,28.00
2018-08-23T10:04:39.647Z,28.00
2018-08-23T10:07:12.543Z,28.10
2018-08-23T10:09:45.517Z,28.30
2018-08-23T10:12:18.481Z,28.60
2018-08-23T10:15:49.568Z,28.70
2018-08-23T10:18:25.627Z,28.90
2018-08-23T10:20:57.831Z,28.70
2018-08-23T10:23:25.424Z,28.70
2018-08-23T10:25:55.096Z,28.60
2018-08-23T10:28:26.840Z,28.40
2018-08-23T10:30:54.804Z,28.30
2018-08-23T10:33:22.333Z,28.20
2018-08-23T10:35:54.213Z,28.10
2018-08-23T10:38:24.851Z,28.00
2018-08-23T10:40:53.591Z,27.90
2018-08-23T10:43:26.495Z,27.80
2018-08-23T10:45:54.084Z,27.70
2018-08-23T10:48:21.636Z,27.70
2018-08-23T10:50:50.152Z,27.60
2018-08-23T10:53:18.129Z,27.50
2018-08-23T10:55:45.960Z,27.30
2018-08-23T10:58:13.574Z,27.10
2018-08-23T11:00:41.563Z,27.00
2018-08-23T11:03:09.120Z,26.90
2018-08-23T11:05:36.712Z,26.80
2018-08-23T11:08:09.801Z,26.70
2018-08-23T11:10:42.847Z,26.70
2018-08-23T11:13:15.826Z,26.50
2018-08-23T11:15:43.413Z,26.50
2018-08-23T11:18:16.292Z,26.40
2018-08-23T11:20:46.980Z,26.30
2018-08-23T11:23:16.554Z,26.20
2018-08-23T11:25:44.099Z,26.10
2018-08-23T11:28:17.054Z,26.10
2018-08-23T11:30:44.595Z,25.90
2018-08-23T11:33:12.160Z,26.00
2018-08-23T11:35:39.682Z,26.10
2018-08-23T11:38:08.364Z,26.00
2018-08-23T11:40:35.932Z,26.10
2018-08-23T11:43:03.808Z,26.00
2018-08-23T11:45:31.428Z,25.90
2018-08-23T11:47:59.344Z,25.80
2018-08-23T11:50:26.878Z,25.90
2018-08-23T11:52:54.421Z,25.80
2018-08-23T11:55:21.944Z,25.80
2018-08-23T11:57:50.130Z,25.90
2018-08-23T12:00:18.134Z,25.80
2018-08-23T12:02:45.710Z,25.90
2018-08-23T12:05:14.872Z,25.90
2018-08-23T12:07:46.465Z,25.90
2018-08-23T12:10:14.953Z,25.90
2018-08-23T12:12:43.221Z,25.90
2018-08-23T12:15:10.767Z,25.80
2018-08-23T12:17:39.059Z,25.90
2018-08-23T12:20:07.221Z,25.90
2018-08-23T12:22:43.127Z,25.90
2018-08-23T12:25:12.434Z,25.90
2018-08-23T12:27:40.699Z,26.00
2018-08-23T12:30:08.273Z,26.10
2018-08-23T12:32:35.877Z,26.20
2018-08-23T12:35:03.604Z,26.20
2018-08-23T12:37:36.786Z,26.20
2018-08-23T12:40:09.787Z,26.20
2018-08-23T12:42:51.754Z,26.30
2018-08-23T12:45:19.387Z,26.40
2018-08-23T12:47:46.929Z,26.40
2018-08-23T12:50:14.451Z,26.50
2018-08-23T12:52:41.987Z,26.50
2018-08-23T12:55:09.560Z,26.60
2018-08-23T12:57:37.101Z,26.50
2018-08-23T13:00:04.715Z,26.50
2018-08-23T13:02:32.366Z,26.50
2018-08-23T13:04:59.860Z,26.50
2018-08-23T13:07:27.410Z,26.50
2018-08-23T13:09:54.948Z,26.50
2018-08-23T13:12:22.561Z,26.60
2018-08-23T13:14:50.212Z,26.60
2018-08-23T13:17:17.739Z,26.50
2018-08-23T13:19:45.287Z,26.50
2018-08-23T13:22:17.122Z,26.60
2018-08-23T13:24:50.257Z,26.70
2018-08-23T13:27:17.840Z,26.80
2018-08-23T13:29:45.453Z,26.80
2018-08-23T13:32:12.988Z,26.80
2018-08-23T13:34:40.741Z,26.90
2018-08-23T13:37:08.366Z,27.00
2018-08-23T13:39:35.829Z,27.20
2018-08-23T13:42:03.389Z,27.30
2018-08-23T13:44:30.964Z,27.60
2018-08-23T13:46:58.488Z,27.70
2018-08-23T13:49:26.733Z,27.70
2018-08-23T13:51:54.251Z,27.90
2018-08-23T13:54:21.834Z,27.90
2018-08-23T13:56:49.360Z,27.90
2018-08-23T13:59:16.948Z,27.80
2018-08-23T14:01:44.502Z,27.80
2018-08-23T14:04:12.085Z,27.90
2018-08-23T14:06:39.629Z,28.00
2018-08-23T14:09:07.206Z,28.00
2018-08-23T14:11:36.058Z,28.10
2018-08-23T14:14:03.672Z,28.20
2018-08-23T14:16:31.235Z,28.30
2018-08-23T14:18:58.788Z,28.20
2018-08-23T14:21:26.331Z,28.30
2018-08-23T14:23:53.881Z,28.30
2018-08-23T14:26:21.456Z,28.40
2018-08-23T14:28:48.994Z,28.50
2018-08-23T14:31:16.543Z,28.60
2018-08-23T14:33:44.076Z,28.60
2018-08-23T14:36:11.634Z,28.80
2018-08-23T14:38:39.237Z,28.80
2018-08-23T14:41:06.769Z,28.90
2018-08-23T14:43:34.337Z,28.90
2018-08-23T14:46:07.352Z,29.00
2018-08-23T14:48:34.932Z,29.00
2018-08-23T14:51:02.517Z,28.90
2018-08-23T14:53:30.814Z,29.00
2018-08-23T14:56:04.808Z,29.00
2018-08-23T14:58:32.382Z,28.70
2018-08-23T15:00:59.980Z,28.70
2018-08-23T15:03:27.585Z,28.60
2018-08-23T15:05:55.132Z,28.70
2018-08-23T15:08:22.678Z,28.70
2018-08-23T15:10:50.225Z,28.60
2018-08-23T15:13:17.752Z,28.60
2018-08-23T15:15:49.536Z,28.60
2018-08-23T15:18:18.376Z,28.70
2018-08-23T15:20:46.077Z,28.60
2018-08-23T15:23:13.556Z,28.60
2018-08-23T15:25:41.186Z,28.50
2018-08-23T15:28:08.937Z,28.60
2018-08-23T15:30:36.535Z,28.40
2018-08-23T15:33:04.450Z,28.40
2018-08-23T15:35:31.944Z,28.50
2018-08-23T15:37:59.486Z,28.50
2018-08-23T15:40:27.289Z,28.50
2018-08-23T15:42:54.892Z,28.50
2018-08-23T15:45:22.453Z,28.50
2018-08-23T15:47:50.498Z,28.50
2018-08-23T15:50:20.473Z,28.50
2018-08-23T15:52:48.025Z,28.40
2018-08-23T15:55:15.732Z,28.40
2018-08-23T15:57:43.252Z,28.40
2018-08-23T16:00:10.784Z,28.30
2018-08-23T16:02:38.422Z,28.30
2018-08-23T16:05:06.331Z,28.30
2018-08-23T16:07:33.933Z,28.30
2018-08-23T16:10:01.510Z,28.20
2018-08-23T16:12:29.192Z,28.30
2018-08-23T16:14:56.976Z,28.20
2018-08-23T16:17:29.863Z,28.20
2018-08-23T16:20:02.965Z,28.10
2018-08-23T16:22:30.555Z,28.10
2018-08-23T16:24:58.170Z,28.10
2018-08-23T16:27:26.107Z,28.10
2018-08-23T16:29:53.904Z,28.10
2018-08-23T16:32:26.992Z,28.10
2018-08-23T16:34:54.545Z,28.00
2018-08-23T16:37:22.152Z,28.00
2018-08-23T16:39:49.757Z,28.00
2018-08-23T16:42:17.332Z,28.00
2018-08-23T16:44:44.881Z,27.90
2018-08-23T16:47:12.838Z,27.90
2018-08-23T16:49:40.402Z,27.90
2018-08-23T16:52:08.233Z,27.90
2018-08-23T16:54:36.147Z,27.80
2018-08-23T16:57:03.973Z,27.80
2018-08-23T16:59:31.493Z,27.70
2018-08-23T17:01:59.848Z,27.70
2018-08-23T17:04:32.800Z,27.50
2018-08-23T17:07:00.329Z,27.40
2018-08-23T17:09:27.872Z,27.20
2018-08-23T17:11:55.419Z,27.10
2018-08-23T17:14:22.979Z,26.90
2018-08-23T17:16:55.939Z,26.90
2018-08-23T17:19:23.481Z,26.70
2018-08-23T17:21:51.024Z,26.80
2018-08-23T17:24:18.623Z,26.70
2018-08-23T17:26:46.115Z,26.70
2018-08-23T17:29:13.722Z,26.60
2018-08-23T17:31:41.275Z,26.60
2018-08-23T17:34:08.898Z,26.50
2018-08-23T17:36:36.485Z,26.50
2018-08-23T17:39:05.560Z,26.40
2018-08-23T17:41:33.996Z,26.40
2018-08-23T17:44:02.568Z,26.40
2018-08-23T17:46:30.176Z,26.30
2018-08-23T17:48:57.752Z,26.20
2018-08-23T17:51:25.293Z,26.20
2018-08-23T17:53:52.855Z,26.10
2018-08-23T17:56:20.443Z,26.00
2018-08-23T17:58:48.089Z,26.00
2018-08-23T18:01:15.620Z,26.00
2018-08-23T18:03:43.227Z,26.00
2018-08-23T18:06:10.825Z,25.90
2018-08-23T18:08:38.381Z,25.90
2018-08-23T18:11:05.956Z,25.90
2018-08-23T18:13:33.548Z,25.80
2018-08-23T18:16:06.708Z,25.70
2018-08-23T18:18:34.256Z,25.70
2018-08-23T18:21:01.843Z,25.60
2018-08-23T18:23:29.424Z,25.60
2018-08-23T18:25:56.958Z,25.60
2018-08-23T18:28:24.536Z,25.60
2018-08-23T18:30:52.108Z,25.60
2018-08-23T18:33:19.821Z,25.60
2018-08-23T18:35:47.331Z,25.60
2018-08-23T18:38:15.105Z,25.60
2018-08-23T18:40:42.646Z,25.50
2018-08-23T18:43:10.403Z,25.50
2018-08-23T18:45:37.959Z,25.50
2018-08-23T18:48:06.099Z,25.40
2018-08-23T18:50:33.633Z,25.40
2018-08-23T18:53:01.167Z,25.40
2018-08-23T18:55:28.769Z,25.40
2018-08-23T18:57:56.435Z,25.30
2018-08-23T19:00:24.010Z,25.30
2018-08-23T19:02:51.575Z,25.30
2018-08-23T19:05:19.154Z,25.30
2018-08-23T19:07:46.698Z,25.20
2018-08-23T19:10:14.224Z,25.20
2018-08-23T19:12:41.902Z,25.20
2018-08-23T19:15:09.522Z,25.20
2018-08-23T19:17:40.159Z,25.20
2018-08-23T19:20:14.105Z,25.10
2018-08-23T19:22:41.700Z,25.10
2018-08-23T19:25:10.233Z,25.10
2018-08-23T19:27:37.819Z,25.10
2018-08-23T19:30:05.714Z,25.10
2018-08-23T19:32:33.278Z,25.10
2018-08-23T19:35:00.919Z,25.10
2018-08-23T19:37:28.589Z,25.10
2018-08-23T19:39:56.174Z,25.00
2018-08-23T19:42:23.820Z,25.00
2018-08-23T19:44:57.156Z,25.00
2018-08-23T19:47:30.394Z,25.00
2018-08-23T19:49:59.304Z,25.00
2018-08-23T19:52:27.346Z,25.00
2018-08-23T19:54:54.920Z,24.90
2018-08-23T19:57:22.594Z,24.90
2018-08-23T19:59:51.232Z,24.90
2018-08-23T20:02:19.771Z,24.90
2018-08-23T20:04:47.320Z,24.80
2018-08-23T20:07:15.307Z,24.80
2018-08-23T20:09:42.916Z,24.80
2018-08-23T20:12:10.956Z,24.70
2018-08-23T20:14:38.718Z,24.70
2018-08-23T20:17:06.288Z,24.70
2018-08-23T20:19:33.896Z,24.70
2018-08-23T20:22:01.441Z,24.70
2018-08-23T20:24:29.415Z,24.70
2018-08-23T20:26:57.803Z,24.60
2018-08-23T20:29:25.373Z,24.60
2018-08-23T20:31:53.248Z,24.50
2018-08-23T20:34:25.072Z,24.50
2018-08-23T20:36:52.652Z,24.40
2018-08-23T20:39:20.440Z,24.40
2018-08-23T20:41:49.722Z,24.30
2018-08-23T20:44:17.294Z,24.30
2018-08-23T20:46:44.914Z,24.30
2018-08-23T20:49:13.668Z,24.20
2018-08-23T20:51:41.247Z,24.10
2018-08-23T20:54:09.915Z,24.10
2018-08-23T20:56:37.651Z,24.10
2018-08-23T20:59:05.358Z,24.20
2018-08-23T21:01:33.166Z,24.10
2018-08-23T21:04:00.941Z,24.10
2018-08-23T21:06:29.931Z,24.10
2018-08-23T21:08:57.488Z,24.10
2018-08-23T21:11:25.105Z,24.10
2018-08-23T21:13:54.085Z,24.10
2018-08-23T21:16:21.695Z,24.10
2018-08-23T21:18:49.291Z,24.10
2018-08-23T21:21:16.918Z,24.10
2018-08-23T21:23:44.464Z,24.00
2018-08-23T21:26:12.023Z,24.10
2018-08-23T21:28:40.597Z,24.10
2018-08-23T21:31:09.521Z,24.10
2018-08-23T21:33:37.099Z,24.10
2018-08-23T21:36:04.669Z,24.10
2018-08-23T21:38:32.194Z,24.00
2018-08-23T21:40:59.785Z,23.90
2018-08-23T21:43:27.385Z,23.90
2018-08-23T21:45:54.979Z,23.90
2018-08-23T21:48:22.515Z,23.90
2018-08-23T21:50:50.108Z,23.90
2018-08-23T21:53:17.643Z,23.80
2018-08-23T21:55:45.212Z,23.80
2018-08-23T21:58:12.816Z,23.80
2018-08-23T22:00:46.879Z,23.80
2018-08-23T22:03:14.468Z,23.70
2018-08-23T22:05:42.595Z,23.70
2018-08-23T22:08:10.499Z,23.70
2018-08-23T22:10:38.365Z,23.60
2018-08-23T22:13:06.052Z,23.60
2018-08-23T22:15:33.696Z,23.60
2018-08-23T22:18:01.271Z,23.60
2018-08-23T22:20:28.835Z,23.60
2018-08-23T22:22:56.367Z,23.60
2018-08-23T22:25:24.021Z,23.50
2018-08-23T22:27:51.546Z,23.50
2018-08-23T22:30:19.096Z,23.50
2018-08-23T22:32:46.716Z,23.50
2018-08-23T22:35:14.254Z,23.40
2018-08-23T22:37:43.210Z,23.40
2018-08-23T22:40:10.757Z,23.40
2018-08-23T22:42:38.303Z,23.40
2018-08-23T22:45:05.905Z,23.30
2018-08-23T22:47:33.452Z,23.30
2018-08-23T22:50:01.044Z,23.20
2018-08-23T22:52:28.578Z,23.20
2018-08-23T22:54:56.102Z,23.20
2018-08-23T22:57:23.660Z,23.20
2018-08-23T22:59:51.185Z,23.20
2018-08-23T23:02:24.392Z,23.20
2018-08-23T23:04:52.125Z,23.10
2018-08-23T23:07:19.680Z,23.10
2018-08-23T23:09:47.234Z,23.10
2018-08-23T23:12:14.804Z,23.10
2018-08-23T23:14:42.354Z,23.00
2018-08-23T23:17:10.767Z,23.00
2018-08-23T23:19:38.557Z,23.00
2018-08-23T23:22:06.195Z,22.90
2018-08-23T23:24:39.256Z,22.90
2018-08-23T23:27:07.070Z,22.80
2018-08-23T23:29:34.612Z,22.70
2018-08-23T23:32:02.183Z,22.70
2018-08-23T23:34:29.717Z,22.70
2018-08-23T23:36:57.258Z,22.70
2018-08-23T23:39:24.780Z,22.70
2018-08-23T23:41:52.315Z,22.70
2018-08-23T23:44:19.860Z,22.70
2018-08-23T23:46:47.447Z,22.60
2018-08-23T23:49:14.987Z,22.60
2018-08-23T23:51:42.511Z,22.60
2018-08-23T23:54:10.087Z,22.60
2018-08-23T23:56:37.647Z,22.50
2018-08-23T23:59:05.643Z,22.50
